Lehigh, North Dakota
Current Conditions -  °F | °C
As of 3:56 PM on Tuesday 21 Oct 2014 (Local Time) from KDIK Reporting Station
Clear Clear  
Wind Chill: 79°   Ceiling: Unl
Heat Index: 79°   Visibility: 10mi
Dew Point: 46°   Wind: 13mph
Humidity: 31%   Direction: 170°S
Pressure: 29.6"   Gusts: NA
Location:  46.9271°N, 102.754°W
Report Text: KDIK 212156Z AUTO 17011KT 10SM CLR 26/08 A2960 RMK AO2 SLP016 T02610078
Loading
Personal Weather Stations






























Interactive Weather Map
Tropical Storm Tracking
New forecast layout! Learn more

10-Day Weather Forecast

Advertisements
Track Severe Weather on mobile